createdAt,value
2022-08-07T00:02:36.475Z,38.80
2022-08-07T00:05:12.169Z,38.94
2022-08-07T00:07:59.687Z,38.95
2022-08-07T00:10:35.413Z,39.00
2022-08-07T00:13:24.100Z,38.91
2022-08-07T00:15:58.786Z,38.81
2022-08-07T00:18:33.582Z,38.83
2022-08-07T00:21:56.329Z,38.98
2022-08-07T00:24:16.346Z,39.05
2022-08-07T00:31:51.346Z,39.05
2022-08-07T00:34:39.104Z,39.07
2022-08-07T00:37:18.176Z,39.18
2022-08-07T00:40:39.752Z,39.23
2022-08-07T00:44:01.111Z,39.25
2022-08-07T00:46:39.707Z,39.24
2022-08-07T00:49:24.757Z,39.14
2022-08-07T00:52:19.916Z,39.25
2022-08-07T00:55:04.682Z,39.15
2022-08-07T00:57:55.744Z,39.30
2022-08-07T01:00:32.060Z,39.44
2022-08-07T01:03:13.075Z,39.41
2022-08-07T01:05:53.658Z,39.42
2022-08-07T01:08:53.576Z,39.48
2022-08-07T01:16:13.745Z,39.74
2022-08-07T01:19:04.277Z,39.82
2022-08-07T01:21:44.523Z,39.80
2022-08-07T01:28:38.719Z,39.89
2022-08-07T01:31:40.887Z,39.97
2022-08-07T01:38:51.989Z,40.06
2022-08-07T01:41:29.273Z,40.18
2022-08-07T01:46:05.352Z,40.23
2022-08-07T01:48:59.818Z,40.45
2022-08-07T01:52:02.656Z,40.54
2022-08-07T01:58:06.195Z,40.56
2022-08-07T02:00:49.960Z,40.55
2022-08-07T02:03:42.897Z,40.70
2022-08-07T02:06:31.851Z,40.78
2022-08-07T02:09:52.344Z,40.74
2022-08-07T02:18:19.201Z,41.02
2022-08-07T02:21:06.368Z,41.18
2022-08-07T02:23:49.340Z,41.08
2022-08-07T02:26:32.617Z,41.06
2022-08-07T02:29:13.910Z,41.07
2022-08-07T02:33:09.059Z,41.24
2022-08-07T02:36:29.815Z,41.19
2022-08-07T02:42:18.118Z,41.14
2022-08-07T02:46:00.364Z,41.34
2022-08-07T02:55:15.315Z,41.40
2022-08-07T02:58:16.810Z,41.52
2022-08-07T03:01:05.821Z,41.44
2022-08-07T03:04:17.146Z,41.55
2022-08-07T03:10:18.389Z,41.48
2022-08-07T03:13:00.763Z,41.51
2022-08-07T03:15:56.261Z,41.38
2022-08-07T03:18:36.270Z,41.52
2022-08-07T03:21:32.838Z,41.43
2022-08-07T03:24:30.516Z,41.63
2022-08-07T03:27:13.693Z,41.49
2022-08-07T03:30:12.907Z,41.56
2022-08-07T03:32:58.599Z,41.73
2022-08-07T03:35:50.188Z,41.80
2022-08-07T03:38:51.322Z,41.82
2022-08-07T03:41:41.744Z,41.83
2022-08-07T03:44:31.842Z,41.87
2022-08-07T03:47:14.743Z,41.88
2022-08-07T03:52:43.556Z,41.93
2022-08-07T04:03:10.006Z,41.88
2022-08-07T04:05:58.808Z,42.09
2022-08-07T04:08:38.556Z,42.12
2022-08-07T04:12:24.393Z,41.98
2022-08-07T04:14:45.978Z,42.07
2022-08-07T04:17:22.690Z,41.95
2022-08-07T04:20:31.967Z,41.77
2022-08-07T04:23:19.382Z,41.67
2022-08-07T04:25:53.347Z,41.47
2022-08-07T04:33:07.243Z,41.19
2022-08-07T04:35:50.246Z,40.98
2022-08-07T04:38:30.935Z,40.89
2022-08-07T04:41:10.294Z,40.93
2022-08-07T04:44:18.958Z,40.71
2022-08-07T04:47:08.143Z,40.64
2022-08-07T04:49:58.158Z,40.50
2022-08-07T04:54:01.716Z,40.46
2022-08-07T04:58:13.926Z,40.27
2022-08-07T04:59:16.900Z,39.58
2022-08-07T05:01:54.347Z,38.55
2022-08-07T05:04:57.505Z,37.03
2022-08-07T05:07:58.681Z,36.02
2022-08-07T05:10:35.281Z,35.59
2022-08-07T05:14:56.532Z,34.83
2022-08-07T05:16:21.168Z,33.55
2022-08-07T05:19:03.677Z,33.17
2022-08-07T05:24:40.393Z,32.16
2022-08-07T05:28:03.103Z,31.86
2022-08-07T05:30:21.145Z,31.54
2022-08-07T05:33:18.073Z,31.43
2022-08-07T05:35:56.938Z,30.71
2022-08-07T05:38:59.923Z,30.68
2022-08-07T05:42:01.879Z,30.86
2022-08-07T05:44:52.821Z,30.06
2022-08-07T05:52:32.545Z,30.07
2022-08-07T05:55:23.138Z,29.34
2022-08-07T05:58:16.435Z,29.16
2022-08-07T06:04:01.411Z,28.74
2022-08-07T06:11:14.766Z,29.04
2022-08-07T06:14:12.211Z,28.74
2022-08-07T06:16:55.939Z,29.03
2022-08-07T06:20:12.872Z,28.97
2022-08-07T06:24:45.813Z,28.42
2022-08-07T06:26:59.373Z,28.82
2022-08-07T06:29:43.240Z,28.88
2022-08-07T06:36:14.549Z,28.20
2022-08-07T06:40:17.252Z,28.24
2022-08-07T06:42:54.035Z,28.61
2022-08-07T06:45:44.791Z,28.54
2022-08-07T06:50:27.553Z,28.79
2022-08-07T06:55:28.226Z,28.30
2022-08-07T06:56:48.607Z,28.28
2022-08-07T07:00:11.758Z,27.96
2022-08-07T07:02:54.445Z,27.93
2022-08-07T07:06:04.027Z,28.17
2022-08-07T07:08:54.741Z,28.11
2022-08-07T07:12:07.724Z,27.80
2022-08-07T07:15:00.890Z,27.77
2022-08-07T07:17:45.375Z,27.74
2022-08-07T07:20:28.097Z,27.64
2022-08-07T07:24:08.348Z,27.61
2022-08-07T07:26:35.062Z,27.54
2022-08-07T07:29:28.522Z,27.65
2022-08-07T07:32:28.052Z,27.08
2022-08-07T07:35:27.862Z,27.37
2022-08-07T07:38:13.920Z,27.39
2022-08-07T07:41:08.830Z,27.21
2022-08-07T07:44:14.382Z,27.04
2022-08-07T07:47:14.163Z,27.03
2022-08-07T07:52:52.253Z,26.64
2022-08-07T07:55:37.601Z,26.15
2022-08-07T07:58:40.258Z,26.20
2022-08-07T08:02:03.731Z,25.78
2022-08-07T08:04:35.495Z,26.16
2022-08-07T08:07:23.488Z,26.24
2022-08-07T08:10:14.773Z,26.00
2022-08-07T08:13:22.299Z,26.05
2022-08-07T08:16:12.729Z,26.10
2022-08-07T08:19:09.669Z,25.83
2022-08-07T08:22:13.854Z,25.24
2022-08-07T08:25:24.756Z,25.41
2022-08-07T08:28:01.862Z,24.99
2022-08-07T08:30:42.869Z,25.01
2022-08-07T08:33:23.630Z,25.01
2022-08-07T08:36:05.143Z,24.52
2022-08-07T08:38:45.310Z,24.63
2022-08-07T08:41:57.329Z,24.73
2022-08-07T08:44:41.152Z,24.71
2022-08-07T08:47:27.451Z,24.84
2022-08-07T08:50:34.743Z,24.88
2022-08-07T08:53:26.064Z,24.92
2022-08-07T08:56:24.400Z,25.32
2022-08-07T08:59:50.277Z,25.18
2022-08-07T09:02:42.274Z,25.48
2022-08-07T09:05:49.806Z,25.30
2022-08-07T09:08:43.671Z,25.47
2022-08-07T09:12:02.815Z,25.45
2022-08-07T09:16:23.252Z,25.36
2022-08-07T09:18:15.802Z,25.82
2022-08-07T09:21:06.517Z,25.65
2022-08-07T09:24:56.111Z,25.60
2022-08-07T09:30:54.895Z,25.89
2022-08-07T09:33:56.896Z,26.20
2022-08-07T09:36:35.887Z,26.19
2022-08-07T09:39:53.610Z,26.01
2022-08-07T09:42:50.409Z,26.01
2022-08-07T09:47:23.903Z,25.54
2022-08-07T09:48:50.212Z,25.44
2022-08-07T09:52:15.901Z,25.37
2022-08-07T09:54:49.045Z,25.51
2022-08-07T09:57:47.113Z,25.97
2022-08-07T10:00:21.471Z,25.87
2022-08-07T10:04:05.498Z,25.93
2022-08-07T10:07:04.712Z,24.56
2022-08-07T10:10:21.387Z,24.59
2022-08-07T10:20:13.015Z,24.97
2022-08-07T10:24:05.505Z,24.92
2022-08-07T10:26:35.042Z,24.50
2022-08-07T10:29:30.663Z,24.41
2022-08-07T10:32:52.428Z,24.70
2022-08-07T10:35:56.028Z,24.21
2022-08-07T10:39:07.436Z,24.13
2022-08-07T10:41:54.752Z,23.63
2022-08-07T10:45:01.357Z,23.28
2022-08-07T10:48:12.916Z,23.08
2022-08-07T10:51:00.876Z,22.76
2022-08-07T10:53:51.736Z,22.82
2022-08-07T10:59:55.961Z,22.14
2022-08-07T11:03:11.309Z,22.46
2022-08-07T11:06:04.777Z,22.27
2022-08-07T11:08:44.338Z,22.24
2022-08-07T11:11:28.510Z,21.87
2022-08-07T11:14:45.906Z,21.47
2022-08-07T11:17:42.844Z,20.78
2022-08-07T11:20:27.143Z,20.54
2022-08-07T11:23:10.059Z,20.43
2022-08-07T11:25:50.984Z,20.35
2022-08-07T11:29:42.033Z,19.97
2022-08-07T11:32:25.703Z,19.75
2022-08-07T11:35:16.637Z,19.00
2022-08-07T11:41:22.309Z,18.59
2022-08-07T11:44:25.503Z,18.72
2022-08-07T11:47:22.528Z,18.33
2022-08-07T11:50:31.587Z,18.02
2022-08-07T11:53:28.864Z,18.00
2022-08-07T12:01:05.085Z,17.58
2022-08-07T12:19:56.721Z,17.09
2022-08-07T12:23:09.178Z,17.12
2022-08-07T12:29:14.411Z,16.27
2022-08-07T12:32:03.824Z,15.72
2022-08-07T12:34:49.646Z,15.53
2022-08-07T12:38:09.784Z,15.39
2022-08-07T12:40:47.654Z,15.79
2022-08-07T12:44:03.525Z,15.49
2022-08-07T12:46:34.441Z,15.28
2022-08-07T12:49:44.729Z,15.32
2022-08-07T12:52:39.791Z,14.93
2022-08-07T12:55:40.854Z,14.81
2022-08-07T12:58:28.213Z,14.47
2022-08-07T13:01:28.218Z,14.48
2022-08-07T13:04:34.631Z,14.03
2022-08-07T13:08:13.772Z,14.43
2022-08-07T13:10:53.972Z,13.98
2022-08-07T13:13:53.861Z,13.38
2022-08-07T13:16:37.167Z,13.42
2022-08-07T13:19:34.852Z,13.36
2022-08-07T13:22:27.509Z,13.46
2022-08-07T13:25:06.052Z,13.29
2022-08-07T13:28:12.864Z,13.50
2022-08-07T13:30:39.965Z,13.43
2022-08-07T13:34:30.855Z,13.29
2022-08-07T13:36:17.673Z,13.40
2022-08-07T13:38:58.336Z,13.22
2022-08-07T13:41:41.611Z,13.30
2022-08-07T13:44:14.155Z,13.06
2022-08-07T13:47:04.833Z,13.04
2022-08-07T13:50:34.376Z,13.16
2022-08-07T13:52:50.566Z,13.16
2022-08-07T13:55:28.416Z,13.32
2022-08-07T13:58:31.669Z,12.65
2022-08-07T14:01:16.271Z,12.98
2022-08-07T14:04:07.893Z,12.84
2022-08-07T14:06:42.249Z,12.46
2022-08-07T14:10:02.274Z,12.37
2022-08-07T14:12:28.196Z,12.34
2022-08-07T14:15:05.574Z,12.27
2022-08-07T14:18:27.366Z,12.08
2022-08-07T14:20:48.712Z,12.11
2022-08-07T14:23:59.551Z,11.52
2022-08-07T14:26:50.358Z,11.62
2022-08-07T14:30:07.539Z,11.26
2022-08-07T14:33:48.381Z,10.78
2022-08-07T14:36:26.112Z,10.28
2022-08-07T14:40:18.148Z,10.50
2022-08-07T14:42:22.617Z,10.70
2022-08-07T14:48:22.346Z,11.10
2022-08-07T14:51:17.136Z,10.72
2022-08-07T14:54:30.918Z,10.41
2022-08-07T15:03:53.668Z,10.29
2022-08-07T15:06:32.669Z,10.50
2022-08-07T15:09:57.659Z,10.67
2022-08-07T15:12:36.657Z,10.50
2022-08-07T15:15:40.424Z,10.26
2022-08-07T15:18:45.314Z,10.52
2022-08-07T15:21:43.989Z,10.95
2022-08-07T15:25:13.620Z,12.32
2022-08-07T15:31:06.941Z,15.43
2022-08-07T15:33:44.326Z,16.76
2022-08-07T15:37:02.543Z,17.56
2022-08-07T15:39:24.505Z,18.97
2022-08-07T15:42:44.791Z,19.96
2022-08-07T15:48:25.900Z,20.85
2022-08-07T15:51:19.261Z,21.32
2022-08-07T15:54:17.535Z,21.33
2022-08-07T16:00:31.696Z,21.60
2022-08-07T16:03:21.876Z,21.89
2022-08-07T16:06:12.391Z,21.37
2022-08-07T16:08:50.193Z,20.82
2022-08-07T16:12:02.533Z,20.15
2022-08-07T16:15:05.665Z,20.06
2022-08-07T16:18:02.588Z,20.26
2022-08-07T16:22:05.019Z,20.31
2022-08-07T16:24:09.234Z,20.45
2022-08-07T16:27:18.353Z,20.64
2022-08-07T16:30:30.249Z,20.62
2022-08-07T16:34:01.436Z,20.52
2022-08-07T16:36:33.042Z,20.29
2022-08-07T16:39:49.483Z,20.08
2022-08-07T16:42:55.054Z,20.26
2022-08-07T16:46:33.663Z,20.38
2022-08-07T16:50:26.584Z,20.27
2022-08-07T16:52:52.109Z,20.48
2022-08-07T16:55:18.004Z,20.68
2022-08-07T16:58:01.596Z,20.76
2022-08-07T17:00:43.278Z,21.20
2022-08-07T17:03:58.246Z,21.65
2022-08-07T17:06:44.602Z,22.08
2022-08-07T17:10:06.503Z,22.58
2022-08-07T17:12:33.757Z,22.87
2022-08-07T17:15:19.806Z,22.95
2022-08-07T17:17:57.140Z,23.34
2022-08-07T17:20:35.834Z,23.56
2022-08-07T17:23:19.429Z,23.88
2022-08-07T17:26:01.020Z,24.00
2022-08-07T17:28:38.282Z,24.11
2022-08-07T17:31:18.925Z,24.35
2022-08-07T17:34:15.257Z,24.39
2022-08-07T17:37:08.880Z,24.73
2022-08-07T17:39:58.834Z,24.80
2022-08-07T17:42:58.457Z,25.02
2022-08-07T17:45:38.217Z,25.03
2022-08-07T17:48:14.647Z,25.26
2022-08-07T17:51:01.757Z,25.37
2022-08-07T17:54:01.293Z,25.69
2022-08-07T17:56:36.489Z,25.65
2022-08-07T17:59:35.394Z,26.05
2022-08-07T18:02:14.695Z,26.13
2022-08-07T18:04:55.512Z,26.00
2022-08-07T18:07:46.448Z,25.99
2022-08-07T18:10:28.590Z,26.57
2022-08-07T18:13:40.893Z,26.52
2022-08-07T18:16:31.099Z,26.77
2022-08-07T18:21:12.803Z,26.79
2022-08-07T18:22:17.063Z,26.88
2022-08-07T18:25:19.378Z,27.01
2022-08-07T18:28:33.105Z,27.13
2022-08-07T18:31:09.234Z,27.10
2022-08-07T18:34:35.826Z,27.17
2022-08-07T18:38:58.722Z,27.46
2022-08-07T18:40:42.874Z,27.51
2022-08-07T18:43:43.321Z,27.85
2022-08-07T18:46:27.352Z,27.93
2022-08-07T18:50:30.926Z,28.08
2022-08-07T18:52:35.072Z,28.25
2022-08-07T18:55:42.408Z,28.32
2022-08-07T18:58:24.566Z,28.46
2022-08-07T19:02:17.633Z,28.41
2022-08-07T19:04:13.666Z,28.64
2022-08-07T19:06:56.348Z,28.80
2022-08-07T19:09:57.828Z,28.76
2022-08-07T19:12:36.237Z,28.78
2022-08-07T19:16:04.410Z,28.77
2022-08-07T19:18:34.545Z,29.04
2022-08-07T19:21:45.146Z,29.06
2022-08-07T19:24:29.995Z,29.17
2022-08-07T19:28:58.354Z,29.26
2022-08-07T19:31:00.216Z,29.26
2022-08-07T19:33:15.590Z,29.43
2022-08-07T19:35:57.693Z,29.53
2022-08-07T19:38:52.577Z,29.55
2022-08-07T19:41:39.287Z,29.52
2022-08-07T19:44:21.675Z,29.68
2022-08-07T19:46:57.685Z,29.74
2022-08-07T19:49:58.323Z,29.80
2022-08-07T19:52:26.308Z,29.91
2022-08-07T19:55:00.044Z,29.95
2022-08-07T19:58:01.397Z,29.90
2022-08-07T20:00:39.895Z,29.95
2022-08-07T20:03:35.487Z,30.03
2022-08-07T20:06:15.502Z,30.11
2022-08-07T20:09:03.073Z,30.05
2022-08-07T20:12:21.957Z,30.22
2022-08-07T20:14:53.527Z,30.25
2022-08-07T20:17:27.710Z,30.26
2022-08-07T20:20:02.563Z,30.40
2022-08-07T20:22:36.290Z,30.32
2022-08-07T20:25:12.624Z,30.40
2022-08-07T20:27:58.424Z,30.23
2022-08-07T20:30:36.652Z,30.23
2022-08-07T20:33:36.952Z,30.33
2022-08-07T20:39:00.283Z,30.21
2022-08-07T20:41:44.441Z,30.17
2022-08-07T20:44:22.376Z,30.01
2022-08-07T20:47:05.932Z,29.84
2022-08-07T20:50:00.834Z,29.86
2022-08-07T20:52:51.646Z,29.64
2022-08-07T20:55:26.767Z,29.73
2022-08-07T20:58:09.035Z,29.85
2022-08-07T21:00:56.632Z,29.77
2022-08-07T21:03:28.506Z,29.75
2022-08-07T21:06:22.382Z,29.87
2022-08-07T21:09:13.727Z,29.64
2022-08-07T21:11:50.997Z,29.69
2022-08-07T21:14:32.633Z,29.73
2022-08-07T21:18:09.629Z,29.71
2022-08-07T21:20:05.584Z,29.81
2022-08-07T21:22:45.148Z,29.92
2022-08-07T21:25:39.281Z,29.96
2022-08-07T21:28:50.354Z,29.83
2022-08-07T21:31:25.413Z,29.89
2022-08-07T21:34:46.187Z,29.83
2022-08-07T21:37:31.465Z,29.83
2022-08-07T21:40:29.002Z,29.88
2022-08-07T21:43:12.874Z,29.84
2022-08-07T21:46:08.429Z,29.83
2022-08-07T21:48:48.118Z,29.57
2022-08-07T21:51:51.885Z,29.62
2022-08-07T21:54:36.042Z,29.67
2022-08-07T21:57:39.452Z,29.65
2022-08-07T22:00:23.127Z,29.63
2022-08-07T22:03:05.870Z,29.73
2022-08-07T22:05:51.479Z,29.74
2022-08-07T22:08:25.182Z,29.99
2022-08-07T22:11:06.104Z,30.13
2022-08-07T22:13:51.849Z,30.13
2022-08-07T22:16:46.128Z,30.42
2022-08-07T22:19:30.078Z,30.73
2022-08-07T22:22:17.626Z,31.11
2022-08-07T22:25:08.326Z,31.50
2022-08-07T22:28:07.373Z,31.70
2022-08-07T22:30:57.678Z,32.01
2022-08-07T22:33:57.101Z,32.15
2022-08-07T22:36:41.537Z,32.15
2022-08-07T22:39:26.573Z,32.31
2022-08-07T22:46:42.487Z,32.34
2022-08-07T22:49:00.850Z,32.41
2022-08-07T22:51:53.809Z,32.39
2022-08-07T22:54:54.836Z,32.46
2022-08-07T22:58:06.397Z,32.45
2022-08-07T23:00:48.497Z,32.50
2022-08-07T23:03:57.950Z,32.46
2022-08-07T23:06:51.438Z,32.41
2022-08-07T23:10:06.206Z,32.44
2022-08-07T23:12:49.761Z,32.45
2022-08-07T23:16:06.128Z,32.34
2022-08-07T23:18:45.783Z,32.30
2022-08-07T23:21:38.494Z,32.30
2022-08-07T23:24:38.644Z,32.16
2022-08-07T23:28:22.372Z,32.21
2022-08-07T23:31:05.794Z,32.14
2022-08-07T23:34:35.023Z,32.32
2022-08-07T23:37:19.051Z,32.31
2022-08-07T23:40:14.306Z,32.29
2022-08-07T23:43:04.787Z,32.33
2022-08-07T23:46:02.658Z,32.34
2022-08-07T23:48:58.567Z,32.40
2022-08-07T23:52:59.747Z,32.44
2022-08-07T23:54:51.915Z,32.51
2022-08-07T23:57:45.790Z,32.51
